Time;durP1;ratioP1;P1;durP2;ratioP2;P2;SDS_P1;SDS_P2;PMS_P1;PMS_P2;Temp;Humidity;BMP_temperature;BMP_pressure;BME280_temperature;BME280_humidity;BME280_pressure;Samples;Min_cycle;Max_cycle;Signal;HPM_P1;HPM_P2
2022/06/07 00:01:29;;;;;;;;;;;26.40;38.90;;;;;;4107315;28;19928;-40
2022/06/07 00:03:30;;;;;;;;;;;26.10;38.40;;;;;;4100559;28;20019;-38
2022/06/07 00:05:32;;;;;;;;;;;26.10;38.30;;;;;;4098550;28;19929;-40
2022/06/07 00:07:34;;;;;;;;;;;26.20;38.10;;;;;;4105185;28;19925;-40
2022/06/07 00:09:36;;;;;;;;;;;26.50;38.30;;;;;;4103999;28;20336;-37
2022/06/07 00:11:37;;;;;;;;;;;26.70;38.20;;;;;;4098270;28;20024;-43
2022/06/07 00:13:39;;;;;;;;;;;27.00;38.10;;;;;;4104519;28;19929;-37
2022/06/07 00:15:42;;;;;;;;;;;27.20;38.10;;;;;;4104508;28;20848;-37
2022/06/07 00:17:43;;;;;;;;;;;27.40;37.90;;;;;;4096679;28;20020;-36
2022/06/07 00:19:45;;;;;;;;;;;27.60;37.80;;;;;;4099376;28;20352;-37
2022/06/07 00:21:47;;;;;;;;;;;27.70;37.80;;;;;;4107634;28;20016;-37
2022/06/07 00:23:48;;;;;;;;;;;27.70;37.80;;;;;;4099376;28;19929;-38
2022/06/07 00:25:51;;;;;;;;;;;27.40;38.10;;;;;;4099115;28;20020;-39
2022/06/07 00:27:53;;;;;;;;;;;27.30;38.30;;;;;;4105462;28;20024;-43
2022/06/07 00:29:55;;;;;;;;;;;27.40;38.30;;;;;;4095312;28;19929;-38
2022/06/07 00:31:58;;;;;;;;;;;27.60;38.10;;;;;;4098779;28;20376;-39
2022/06/07 00:34:00;;;;;;;;;;;27.80;38.60;;;;;;4104472;28;20212;-38
2022/06/07 00:36:02;;;;;;;;;;;28.00;37.80;;;;;;4100052;28;20318;-37
2022/06/07 00:38:03;;;;;;;;;;;28.10;37.60;;;;;;4099621;28;19983;-36
2022/06/07 00:40:05;;;;;;;;;;;28.30;37.60;;;;;;4102462;28;20302;-39
2022/06/07 00:42:07;;;;;;;;;;;28.50;37.50;;;;;;4105475;28;19980;-36
2022/06/07 00:44:26;;;;;;;;;;;28.60;37.50;;;;;;4099708;28;19966;-36
2022/06/07 00:46:28;;;;;;;;;;;28.70;37.40;;;;;;4100291;28;20939;-37
2022/06/07 00:48:29;;;;;;;;;;;28.80;37.40;;;;;;4094656;28;19925;-40
2022/06/07 00:50:40;;;;;;;;;;;28.50;37.40;;;;;;4106076;28;19936;-36
2022/06/07 00:52:42;;;;;;;;;;;28.20;37.70;;;;;;4103901;28;19944;-37
2022/06/07 00:54:43;;;;;;;;;;;28.20;38.00;;;;;;4098697;28;20371;-41
2022/06/07 00:56:45;;;;;;;;;;;28.20;37.50;;;;;;4094933;28;19929;-39
2022/06/07 00:58:48;;;;;;;;;;;28.40;37.10;;;;;;4102353;28;20007;-39
2022/06/07 01:00:50;;;;;;;;;;;28.50;36.70;;;;;;4107879;28;19929;-40
2022/06/07 01:02:52;;;;;;;;;;;28.60;36.40;;;;;;4096024;28;19932;-39
2022/06/07 01:04:54;;;;;;;;;;;28.70;36.20;;;;;;4099232;28;19987;-38
2022/06/07 01:11:36;;;;;;;;;;;29.00;36.30;;;;;;4095888;28;20376;-40
2022/06/07 01:13:37;;;;;;;;;;;28.70;36.30;;;;;;4105784;28;19925;-37
2022/06/07 01:15:39;;;;;;;;;;;28.40;36.60;;;;;;4081513;28;20481;-37
2022/06/07 01:17:41;;;;;;;;;;;28.40;36.70;;;;;;4098542;28;19939;-37
2022/06/07 01:19:43;;;;;;;;;;;28.40;36.90;;;;;;4105233;28;19972;-36
2022/06/07 01:21:46;;;;;;;;;;;28.20;37.00;;;;;;4104950;28;20700;-40
2022/06/07 01:23:48;;;;;;;;;;;28.10;37.70;;;;;;4096733;28;19932;-41
2022/06/07 01:25:59;;;;;;;;;;;28.10;37.70;;;;;;4099135;28;20002;-38
2022/06/07 01:28:01;;;;;;;;;;;28.20;37.00;;;;;;4097181;28;20637;-37
2022/06/07 01:30:04;;;;;;;;;;;28.00;37.10;;;;;;4106278;28;20411;-37
2022/06/07 01:32:05;;;;;;;;;;;27.90;37.10;;;;;;4099161;28;19977;-37
2022/06/07 01:34:07;;;;;;;;;;;28.10;37.00;;;;;;4097357;28;19925;-37
2022/06/07 01:36:13;;;;;;;;;;;28.30;36.90;;;;;;4104934;28;20029;-37
2022/06/07 01:38:14;;;;;;;;;;;28.60;36.60;;;;;;4103170;28;20559;-38
2022/06/07 01:42:35;;;;;;;;;;;28.80;36.40;;;;;;4101929;28;19933;-37
2022/06/07 01:44:42;;;;;;;;;;;28.50;36.50;;;;;;4103338;28;20019;-39
2022/06/07 01:46:44;;;;;;;;;;;28.30;36.80;;;;;;4102612;28;19929;-39
2022/06/07 01:48:46;;;;;;;;;;;28.30;36.90;;;;;;4108927;28;20581;-38
2022/06/07 01:50:47;;;;;;;;;;;28.10;37.70;;;;;;4102813;28;19929;-36
2022/06/07 01:52:49;;;;;;;;;;;28.00;37.00;;;;;;4100469;28;19932;-41
2022/06/07 01:54:53;;;;;;;;;;;28.20;37.00;;;;;;4110081;28;20023;-37
2022/06/07 01:56:55;;;;;;;;;;;28.40;36.60;;;;;;4098804;28;19929;-38
2022/06/07 01:58:57;;;;;;;;;;;28.70;36.50;;;;;;4101688;28;19925;-37
2022/06/07 02:00:59;;;;;;;;;;;28.70;36.40;;;;;;4110279;28;19929;-47
2022/06/07 02:03:00;;;;;;;;;;;28.40;36.60;;;;;;4099853;28;19944;-38
2022/06/07 02:05:02;;;;;;;;;;;28.20;36.70;;;;;;4101425;28;19929;-38
2022/06/07 02:07:04;;;;;;;;;;;28.30;36.80;;;;;;4096507;28;19925;-38
2022/06/07 02:09:07;;;;;;;;;;;28.50;36.60;;;;;;4076574;28;21210;-36
2022/06/07 02:11:19;;;;;;;;;;;28.50;36.50;;;;;;4088327;28;20143;-37
2022/06/07 02:13:22;;;;;;;;;;;28.20;36.60;;;;;;4090793;28;19929;-35
2022/06/07 02:15:23;;;;;;;;;;;28.10;36.90;;;;;;4093563;28;20389;-36
2022/06/07 02:17:25;;;;;;;;;;;28.10;37.00;;;;;;4098354;28;19925;-40
2022/06/07 02:19:27;;;;;;;;;;;27.90;36.90;;;;;;4092241;28;20380;-35
2022/06/07 02:21:29;;;;;;;;;;;27.90;37.10;;;;;;4090901;28;20170;-36
2022/06/07 02:23:31;;;;;;;;;;;28.10;36.90;;;;;;4099387;28;20472;-35
2022/06/07 02:25:35;;;;;;;;;;;28.30;36.60;;;;;;4088519;28;19936;-36
2022/06/07 02:27:38;;;;;;;;;;;28.60;36.40;;;;;;4089898;28;20421;-39
2022/06/07 02:29:42;;;;;;;;;;;28.80;36.10;;;;;;4095066;28;19925;-36
2022/06/07 02:31:46;;;;;;;;;;;29.00;36.10;;;;;;4097536;28;19972;-36
2022/06/07 02:33:48;;;;;;;;;;;29.10;36.10;;;;;;4090673;28;19968;-36
2022/06/07 02:35:49;;;;;;;;;;;28.80;36.10;;;;;;4075732;28;19926;-39
2022/06/07 02:37:51;;;;;;;;;;;28.60;36.30;;;;;;4101049;28;20146;-40
2022/06/07 02:39:53;;;;;;;;;;;28.60;36.50;;;;;;4091498;28;20071;-39
2022/06/07 02:41:55;;;;;;;;;;;28.70;36.50;;;;;;4088172;28;20309;-39
2022/06/07 02:43:57;;;;;;;;;;;28.50;36.40;;;;;;4098271;28;19952;-38
2022/06/07 02:45:58;;;;;;;;;;;28.30;36.50;;;;;;4091425;28;19971;-41
2022/06/07 02:48:00;;;;;;;;;;;28.40;36.50;;;;;;4086767;28;20028;-40
2022/06/07 02:50:02;;;;;;;;;;;28.60;36.30;;;;;;4097817;28;19929;-39
2022/06/07 02:52:04;;;;;;;;;;;28.80;36.20;;;;;;4097167;28;21968;-37
2022/06/07 02:54:06;;;;;;;;;;;28.70;36.30;;;;;;4089968;28;20607;-36
2022/06/07 02:56:07;;;;;;;;;;;28.50;36.40;;;;;;4095939;28;20023;-36
2022/06/07 02:58:09;;;;;;;;;;;28.50;36.40;;;;;;4097126;28;20302;-36
2022/06/07 03:00:13;;;;;;;;;;;28.70;36.30;;;;;;4088092;28;19933;-35
2022/06/07 03:02:14;;;;;;;;;;;28.90;36.10;;;;;;4086531;28;20189;-41
2022/06/07 03:04:16;;;;;;;;;;;28.90;36.10;;;;;;4095843;28;19936;-38
2022/06/07 03:06:18;;;;;;;;;;;28.70;36.20;;;;;;4091288;28;20794;-37
2022/06/07 03:08:19;;;;;;;;;;;28.40;36.40;;;;;;4092336;28;20316;-38
2022/06/07 03:10:21;;;;;;;;;;;28.10;36.50;;;;;;4097708;28;19926;-38
2022/06/07 03:12:23;;;;;;;;;;;27.90;36.70;;;;;;4088592;28;20454;-38
2022/06/07 03:14:24;;;;;;;;;;;27.70;36.90;;;;;;4081317;28;20435;-37
2022/06/07 03:16:26;;;;;;;;;;;27.50;37.30;;;;;;4096464;28;19933;-40
2022/06/07 03:18:27;;;;;;;;;;;27.40;37.50;;;;;;4071633;28;21367;-36
2022/06/07 03:20:29;;;;;;;;;;;27.20;37.60;;;;;;4090507;28;20337;-38
2022/06/07 03:22:31;;;;;;;;;;;27.10;37.90;;;;;;4077262;28;19957;-39
2022/06/07 03:24:33;;;;;;;;;;;26.90;38.00;;;;;;4094842;28;19929;-37
2022/06/07 03:26:34;;;;;;;;;;;26.80;38.10;;;;;;4087400;28;19929;-37
2022/06/07 03:28:37;;;;;;;;;;;26.70;38.00;;;;;;4093733;28;20399;-37
2022/06/07 03:30:39;;;;;;;;;;;26.60;38.20;;;;;;4093339;28;20007;-44
2022/06/07 03:32:42;;;;;;;;;;;26.50;38.30;;;;;;4088441;28;19925;-36
2022/06/07 03:34:44;;;;;;;;;;;26.40;38.20;;;;;;4086460;28;20399;-36
2022/06/07 03:36:46;;;;;;;;;;;26.30;38.60;;;;;;4078972;28;20401;-36
2022/06/07 03:38:48;;;;;;;;;;;26.20;38.70;;;;;;4085369;28;19932;-36
2022/06/07 03:40:50;;;;;;;;;;;26.10;38.60;;;;;;4072852;28;20470;-37
2022/06/07 03:42:51;;;;;;;;;;;26.00;38.50;;;;;;4094316;28;19984;-35
2022/06/07 03:44:53;;;;;;;;;;;25.90;38.70;;;;;;4091555;28;19968;-37
2022/06/07 03:46:54;;;;;;;;;;;25.80;38.70;;;;;;4089550;28;20185;-35
2022/06/07 03:48:56;;;;;;;;;;;25.70;38.80;;;;;;4096450;28;20312;-35
2022/06/07 03:50:58;;;;;;;;;;;25.70;39.00;;;;;;4075251;28;21735;-38
2022/06/07 03:53:00;;;;;;;;;;;25.60;38.90;;;;;;4089913;28;19941;-35
2022/06/07 03:55:02;;;;;;;;;;;25.50;39.10;;;;;;4094208;28;20443;-36
2022/06/07 03:57:04;;;;;;;;;;;25.40;39.00;;;;;;4076404;28;21924;-36
2022/06/07 03:59:05;;;;;;;;;;;25.40;39.60;;;;;;4088371;28;19929;-37
2022/06/07 04:01:08;;;;;;;;;;;25.30;39.30;;;;;;4090886;28;20694;-35
2022/06/07 04:03:10;;;;;;;;;;;25.30;39.40;;;;;;4093162;28;19926;-36
2022/06/07 04:05:11;;;;;;;;;;;25.20;39.40;;;;;;4092555;28;20272;-36
2022/06/07 04:09:42;;;;;;;;;;;25.10;39.50;;;;;;4098125;28;20371;-36
2022/06/07 04:11:44;;;;;;;;;;;25.00;39.50;;;;;;4099977;28;19925;-35
2022/06/07 04:13:46;;;;;;;;;;;25.00;39.70;;;;;;4104069;28;20051;-35
2022/06/07 04:15:47;;;;;;;;;;;24.90;39.70;;;;;;4118344;28;20350;-35
2022/06/07 04:17:50;;;;;;;;;;;24.80;39.60;;;;;;4098965;28;20426;-35
2022/06/07 04:19:51;;;;;;;;;;;24.80;39.80;;;;;;4095826;28;20002;-35
2022/06/07 04:21:53;;;;;;;;;;;24.80;39.90;;;;;;4104376;28;19929;-37
2022/06/07 04:23:54;;;;;;;;;;;24.70;39.90;;;;;;4099684;28;20289;-36
2022/06/07 04:25:56;;;;;;;;;;;24.70;39.90;;;;;;4098340;28;19999;-36
2022/06/07 04:27:57;;;;;;;;;;;24.60;39.90;;;;;;4103817;28;19924;-37
2022/06/07 04:29:59;;;;;;;;;;;24.60;40.00;;;;;;4092956;28;20648;-37
2022/06/07 04:32:01;;;;;;;;;;;24.60;40.20;;;;;;4097616;28;20480;-37
2022/06/07 04:34:02;;;;;;;;;;;24.50;40.10;;;;;;4106709;28;19925;-36
2022/06/07 04:36:09;;;;;;;;;;;24.50;40.00;;;;;;4098330;28;21272;-38
2022/06/07 04:38:12;;;;;;;;;;;24.50;40.10;;;;;;4099988;28;19987;-37
2022/06/07 04:40:14;;;;;;;;;;;24.40;40.10;;;;;;4098602;28;19936;-38
2022/06/07 04:42:15;;;;;;;;;;;24.40;40.10;;;;;;4106260;28;20315;-39
2022/06/07 04:44:17;;;;;;;;;;;24.40;40.50;;;;;;4113658;28;19999;-38
2022/06/07 04:46:19;;;;;;;;;;;24.30;40.40;;;;;;4098872;28;19930;-40
2022/06/07 04:48:21;;;;;;;;;;;24.30;40.30;;;;;;4106286;28;19940;-37
2022/06/07 04:50:23;;;;;;;;;;;24.30;40.30;;;;;;4094991;28;20139;-37
2022/06/07 04:52:24;;;;;;;;;;;24.30;40.30;;;;;;4094847;28;20334;-37
2022/06/07 04:54:26;;;;;;;;;;;24.20;40.30;;;;;;4101668;28;19930;-36
2022/06/07 04:56:29;;;;;;;;;;;24.20;40.30;;;;;;4095641;28;19929;-37
2022/06/07 04:58:30;;;;;;;;;;;24.20;40.40;;;;;;4099217;28;20208;-37
2022/06/07 05:00:32;;;;;;;;;;;24.20;40.40;;;;;;4101062;28;19933;-36
2022/06/07 05:02:35;;;;;;;;;;;24.10;40.40;;;;;;4112543;28;21211;-37
2022/06/07 05:04:36;;;;;;;;;;;24.10;40.60;;;;;;4093736;28;19937;-39
2022/06/07 05:06:39;;;;;;;;;;;24.00;40.60;;;;;;4091152;28;20023;-37
2022/06/07 05:08:41;;;;;;;;;;;24.00;40.80;;;;;;4093950;28;19972;-39
2022/06/07 05:10:43;;;;;;;;;;;24.00;40.80;;;;;;4085182;28;19930;-37
2022/06/07 05:12:44;;;;;;;;;;;24.00;40.80;;;;;;4088287;28;19925;-37
2022/06/07 05:14:47;;;;;;;;;;;23.90;40.90;;;;;;4098336;28;20438;-36
2022/06/07 05:16:49;;;;;;;;;;;23.90;41.20;;;;;;4091705;28;20492;-39
2022/06/07 05:18:52;;;;;;;;;;;23.80;41.10;;;;;;4090042;28;19957;-36
2022/06/07 05:20:53;;;;;;;;;;;23.80;41.10;;;;;;4100584;28;19925;-36
2022/06/07 05:22:55;;;;;;;;;;;23.70;41.20;;;;;;4096818;28;21540;-37
2022/06/07 05:24:56;;;;;;;;;;;23.60;41.20;;;;;;4093133;28;19952;-38
2022/06/07 05:27:02;;;;;;;;;;;23.60;41.30;;;;;;4095868;28;19928;-36
2022/06/07 05:29:05;;;;;;;;;;;23.60;42.10;;;;;;4097202;28;19929;-40
2022/06/07 05:31:06;;;;;;;;;;;23.60;41.60;;;;;;4091086;28;19929;-37
2022/06/07 05:33:08;;;;;;;;;;;23.50;41.50;;;;;;4091913;28;20357;-37
2022/06/07 05:35:10;;;;;;;;;;;23.50;41.60;;;;;;4104355;28;20191;-39
2022/06/07 05:37:14;;;;;;;;;;;23.40;41.50;;;;;;4091369;28;20988;-43
2022/06/07 05:39:21;;;;;;;;;;;23.40;41.50;;;;;;4078347;28;20034;-37
2022/06/07 05:41:25;;;;;;;;;;;23.30;41.60;;;;;;4092309;28;20849;-37
2022/06/07 05:43:27;;;;;;;;;;;23.30;41.80;;;;;;4099255;28;20372;-37
2022/06/07 05:45:31;;;;;;;;;;;23.20;41.70;;;;;;4091631;28;19975;-37
2022/06/07 05:47:32;;;;;;;;;;;23.20;41.80;;;;;;4092104;28;20447;-37
2022/06/07 05:49:34;;;;;;;;;;;23.10;41.30;;;;;;4081886;28;20586;-38
2022/06/07 05:51:36;;;;;;;;;;;23.30;41.00;;;;;;4098641;28;19936;-37
2022/06/07 05:53:38;;;;;;;;;;;23.50;40.70;;;;;;4096072;28;20422;-40
2022/06/07 05:55:40;;;;;;;;;;;24.00;40.30;;;;;;4093040;28;20379;-39
2022/06/07 05:57:44;;;;;;;;;;;24.40;39.70;;;;;;4100718;28;19930;-37
2022/06/07 05:59:49;;;;;;;;;;;24.80;39.00;;;;;;4093682;28;20585;-38
2022/06/07 06:01:50;;;;;;;;;;;25.10;38.50;;;;;;4074531;28;20432;-37
2022/06/07 06:03:52;;;;;;;;;;;25.50;38.20;;;;;;4098405;28;20381;-36
2022/06/07 06:05:54;;;;;;;;;;;25.70;37.90;;;;;;4101922;28;20926;-39
2022/06/07 06:10:21;;;;;;;;;;;26.20;37.50;;;;;;4101105;28;19969;-38
2022/06/07 06:12:23;;;;;;;;;;;26.00;37.90;;;;;;4103799;28;19925;-38
2022/06/07 06:14:25;;;;;;;;;;;26.00;38.00;;;;;;4101969;28;20496;-37
2022/06/07 06:16:26;;;;;;;;;;;26.20;38.10;;;;;;4111365;28;19947;-40
2022/06/07 06:18:28;;;;;;;;;;;26.50;37.90;;;;;;4102371;28;19929;-37
2022/06/07 06:20:30;;;;;;;;;;;26.70;37.60;;;;;;4104011;28;19930;-37
2022/06/07 06:22:34;;;;;;;;;;;27.00;37.60;;;;;;4108525;28;19929;-41
2022/06/07 06:24:35;;;;;;;;;;;27.20;37.30;;;;;;4114616;28;20588;-37
2022/06/07 06:26:40;;;;;;;;;;;27.40;37.10;;;;;;4102630;28;19936;-37
2022/06/07 06:28:42;;;;;;;;;;;27.70;36.90;;;;;;4102857;28;19932;-37
2022/06/07 06:30:44;;;;;;;;;;;28.00;36.50;;;;;;4101240;28;19964;-38
2022/06/07 06:32:46;;;;;;;;;;;28.40;36.00;;;;;;4099086;28;19929;-37
2022/06/07 06:34:47;;;;;;;;;;;28.80;35.60;;;;;;4101153;28;19996;-38
2022/06/07 06:36:49;;;;;;;;;;;28.70;35.50;;;;;;4108289;28;20415;-38
2022/06/07 06:38:51;;;;;;;;;;;28.30;35.80;;;;;;4098670;28;19928;-37
2022/06/07 06:40:52;;;;;;;;;;;27.90;36.20;;;;;;4102578;28;20392;-37
2022/06/07 06:42:54;;;;;;;;;;;27.50;36.60;;;;;;4107864;28;19925;-39
2022/06/07 06:44:55;;;;;;;;;;;27.10;36.90;;;;;;4100305;28;19975;-38
2022/06/07 06:46:58;;;;;;;;;;;26.80;37.20;;;;;;4099958;28;20016;-37
2022/06/07 06:48:59;;;;;;;;;;;26.50;37.40;;;;;;4107127;28;20396;-37
2022/06/07 06:51:04;;;;;;;;;;;26.20;37.70;;;;;;4104122;28;21584;-38
2022/06/07 06:53:06;;;;;;;;;;;26.00;37.90;;;;;;4099298;28;19925;-43
2022/06/07 06:55:08;;;;;;;;;;;25.80;38.20;;;;;;4103081;28;19925;-37
2022/06/07 06:57:09;;;;;;;;;;;25.60;38.40;;;;;;4102709;28;20587;-38
2022/06/07 06:59:11;;;;;;;;;;;25.50;38.80;;;;;;4096131;28;20289;-41
2022/06/07 07:01:15;;;;;;;;;;;25.40;39.00;;;;;;4098121;28;19936;-37
2022/06/07 07:03:16;;;;;;;;;;;25.20;39.10;;;;;;4106710;28;19936;-38
2022/06/07 07:05:18;;;;;;;;;;;25.10;39.30;;;;;;4112870;28;19954;-42
2022/06/07 07:07:19;;;;;;;;;;;25.00;39.50;;;;;;4097718;28;20027;-37
2022/06/07 07:09:26;;;;;;;;;;;24.80;39.60;;;;;;4105391;28;19925;-37
2022/06/07 07:11:33;;;;;;;;;;;24.70;39.70;;;;;;4099999;28;19936;-37
2022/06/07 07:13:35;;;;;;;;;;;24.60;39.80;;;;;;4095263;28;20762;-37
2022/06/07 07:15:36;;;;;;;;;;;24.60;40.00;;;;;;4098230;28;20769;-40
2022/06/07 07:17:38;;;;;;;;;;;24.50;40.10;;;;;;4105264;28;20754;-38
2022/06/07 07:19:39;;;;;;;;;;;24.40;40.20;;;;;;4096573;28;21078;-39
2022/06/07 07:21:43;;;;;;;;;;;24.30;40.30;;;;;;4095574;28;19924;-38
2022/06/07 07:23:45;;;;;;;;;;;24.20;40.40;;;;;;4100406;28;19929;-38
2022/06/07 07:25:46;;;;;;;;;;;24.10;40.60;;;;;;4103465;28;20680;-38
2022/06/07 07:27:48;;;;;;;;;;;24.00;40.50;;;;;;4095983;28;19933;-37
2022/06/07 07:29:49;;;;;;;;;;;23.90;40.80;;;;;;4101074;28;20314;-39
2022/06/07 07:31:51;;;;;;;;;;;23.90;40.80;;;;;;4104010;28;20832;-40
2022/06/07 07:33:53;;;;;;;;;;;23.80;41.00;;;;;;4093011;28;20375;-38
2022/06/07 07:35:55;;;;;;;;;;;23.70;40.90;;;;;;4096916;28;19936;-38
2022/06/07 07:37:59;;;;;;;;;;;23.70;41.20;;;;;;4103933;28;20349;-38
2022/06/07 07:40:01;;;;;;;;;;;23.60;41.40;;;;;;4100731;28;20288;-39
2022/06/07 07:42:03;;;;;;;;;;;23.50;41.40;;;;;;4100085;28;20019;-38
2022/06/07 07:44:05;;;;;;;;;;;23.50;41.40;;;;;;4105277;28;20334;-38
2022/06/07 07:46:07;;;;;;;;;;;23.40;41.70;;;;;;4104193;28;20285;-38
2022/06/07 07:48:08;;;;;;;;;;;23.40;41.70;;;;;;4096949;28;20565;-37
2022/06/07 07:50:14;;;;;;;;;;;23.30;41.70;;;;;;4105059;28;19924;-37
2022/06/07 07:52:18;;;;;;;;;;;23.20;41.80;;;;;;4107243;28;19925;-38
2022/06/07 07:54:21;;;;;;;;;;;23.10;41.90;;;;;;4088254;28;20700;-37
2022/06/07 07:56:24;;;;;;;;;;;23.10;41.90;;;;;;4098638;28;21453;-39
2022/06/07 07:58:26;;;;;;;;;;;23.00;41.90;;;;;;4100875;28;19936;-36
2022/06/07 08:00:29;;;;;;;;;;;22.90;42.00;;;;;;4101581;28;20910;-38
2022/06/07 08:02:31;;;;;;;;;;;22.90;42.30;;;;;;4097556;28;19925;-38
2022/06/07 08:04:32;;;;;;;;;;;22.80;42.40;;;;;;4097568;28;19929;-43
2022/06/07 08:06:34;;;;;;;;;;;22.70;42.50;;;;;;4105997;28;19925;-37
2022/06/07 08:08:36;;;;;;;;;;;22.60;42.40;;;;;;4095941;28;19936;-39
2022/06/07 08:10:38;;;;;;;;;;;22.60;42.50;;;;;;4097484;28;20372;-46
2022/06/07 08:12:40;;;;;;;;;;;22.60;43.30;;;;;;4106123;28;19937;-38
2022/06/07 08:14:42;;;;;;;;;;;22.50;42.80;;;;;;4095924;28;21140;-37
2022/06/07 08:16:44;;;;;;;;;;;22.40;42.70;;;;;;4095581;28;19925;-39
2022/06/07 08:18:46;;;;;;;;;;;22.40;42.90;;;;;;4105366;28;19929;-37
2022/06/07 08:20:47;;;;;;;;;;;22.30;42.90;;;;;;4096087;28;20443;-38
2022/06/07 08:22:50;;;;;;;;;;;22.20;42.90;;;;;;4091691;28;20676;-39
2022/06/07 08:24:51;;;;;;;;;;;22.20;42.90;;;;;;4093385;28;20596;-37
2022/06/07 08:26:54;;;;;;;;;;;22.10;42.90;;;;;;4097716;28;19980;-42
2022/06/07 08:28:55;;;;;;;;;;;22.10;43.00;;;;;;4096013;28;20030;-37
2022/06/07 08:30:57;;;;;;;;;;;22.00;43.10;;;;;;4097634;28;20048;-42
2022/06/07 08:32:59;;;;;;;;;;;22.00;43.30;;;;;;4099994;28;19935;-37
2022/06/07 08:37:38;;;;;;;;;;;21.90;43.30;;;;;;4095751;28;19968;-37
2022/06/07 08:39:40;;;;;;;;;;;21.90;43.50;;;;;;4102106;28;20329;-46
2022/06/07 08:41:47;;;;;;;;;;;21.80;43.70;;;;;;4098322;28;19926;-37
2022/06/07 08:43:48;;;;;;;;;;;21.80;43.80;;;;;;4087953;28;20036;-37
2022/06/07 08:45:50;;;;;;;;;;;21.80;43.90;;;;;;4097482;28;20212;-38
2022/06/07 08:47:54;;;;;;;;;;;21.70;44.00;;;;;;4101115;28;19926;-43
2022/06/07 08:49:56;;;;;;;;;;;21.70;44.00;;;;;;4095863;28;20375;-45
2022/06/07 08:52:01;;;;;;;;;;;21.70;44.30;;;;;;4095543;28;19979;-39
2022/06/07 08:54:13;;;;;;;;;;;21.60;44.50;;;;;;4099581;28;19925;-38
2022/06/07 08:56:17;;;;;;;;;;;21.60;44.50;;;;;;4095923;28;20487;-37
2022/06/07 08:58:27;;;;;;;;;;;21.50;44.60;;;;;;4099864;28;21039;-37
2022/06/07 09:00:31;;;;;;;;;;;21.50;44.60;;;;;;4100688;28;20168;-37
2022/06/07 09:02:41;;;;;;;;;;;21.50;44.80;;;;;;4096924;28;20405;-38
2022/06/07 09:04:43;;;;;;;;;;;21.40;44.90;;;;;;4097123;28;19980;-41
2022/06/07 09:06:46;;;;;;;;;;;21.40;44.80;;;;;;4093349;28;19936;-38
2022/06/07 09:08:49;;;;;;;;;;;21.40;44.90;;;;;;4100133;28;20338;-37
2022/06/07 09:13:15;;;;;;;;;;;21.30;45.10;;;;;;4102785;28;20012;-39
2022/06/07 09:15:19;;;;;;;;;;;21.30;45.20;;;;;;4091576;28;21054;-38
2022/06/07 09:17:28;;;;;;;;;;;21.30;45.10;;;;;;4096240;28;20265;-43
2022/06/07 09:19:31;;;;;;;;;;;21.20;45.40;;;;;;4094678;28;19936;-39
2022/06/07 09:21:33;;;;;;;;;;;21.20;45.50;;;;;;4100052;28;19929;-39
2022/06/07 09:23:46;;;;;;;;;;;21.20;45.50;;;;;;4097964;28;21063;-38
2022/06/07 09:25:50;;;;;;;;;;;21.20;45.70;;;;;;4091804;28;20035;-44
2022/06/07 09:27:52;;;;;;;;;;;21.10;45.60;;;;;;4096817;28;20498;-38
2022/06/07 09:29:56;;;;;;;;;;;21.10;45.80;;;;;;4094243;28;19956;-38
2022/06/07 09:31:57;;;;;;;;;;;21.10;46.10;;;;;;4103267;28;19925;-38
2022/06/07 09:34:15;;;;;;;;;;;21.00;45.90;;;;;;4091383;28;20662;-39
2022/06/07 09:36:25;;;;;;;;;;;21.00;46.10;;;;;;4101355;28;21398;-39
2022/06/07 09:38:27;;;;;;;;;;;21.00;46.20;;;;;;4095144;28;22129;-42
2022/06/07 09:40:30;;;;;;;;;;;20.90;46.20;;;;;;4090799;28;20303;-40
2022/06/07 09:42:32;;;;;;;;;;;20.90;46.30;;;;;;4098902;28;20040;-39
2022/06/07 09:44:38;;;;;;;;;;;20.90;46.40;;;;;;4101038;28;19937;-39
2022/06/07 09:46:41;;;;;;;;;;;20.90;46.40;;;;;;4096335;28;19952;-37
2022/06/07 09:48:44;;;;;;;;;;;20.80;46.40;;;;;;4096622;28;20036;-38
2022/06/07 09:50:54;;;;;;;;;;;20.80;46.50;;;;;;4101466;28;20302;-36
2022/06/07 09:52:57;;;;;;;;;;;20.80;46.70;;;;;;4101978;28;19971;-36
2022/06/07 09:55:13;;;;;;;;;;;20.70;46.60;;;;;;4099420;28;19936;-38
2022/06/07 09:57:26;;;;;;;;;;;20.70;46.70;;;;;;4105388;28;19929;-42
2022/06/07 09:59:30;;;;;;;;;;;20.70;46.90;;;;;;4105811;28;19925;-38
2022/06/07 10:01:35;;;;;;;;;;;20.70;46.90;;;;;;4099795;28;21095;-39
2022/06/07 10:03:42;;;;;;;;;;;20.60;46.80;;;;;;4100209;28;19953;-38
2022/06/07 10:05:47;;;;;;;;;;;20.60;46.90;;;;;;4099557;28;20440;-38
2022/06/07 10:07:52;;;;;;;;;;;20.60;47.10;;;;;;4106055;28;20683;-38
2022/06/07 10:10:01;;;;;;;;;;;20.60;47.10;;;;;;4106284;28;20577;-38
2022/06/07 10:12:21;;;;;;;;;;;20.50;47.10;;;;;;4103395;28;20845;-38
2022/06/07 10:14:40;;;;;;;;;;;20.50;47.10;;;;;;4108544;28;20354;-40
2022/06/07 10:17:01;;;;;;;;;;;20.50;47.20;;;;;;4102627;28;19929;-39
2022/06/07 10:19:18;;;;;;;;;;;20.40;47.20;;;;;;4100802;28;20031;-40
2022/06/07 10:21:49;;;;;;;;;;;20.40;47.20;;;;;;4099982;28;20005;-40
2022/06/07 10:23:59;;;;;;;;;;;20.40;47.20;;;;;;4100603;28;19929;-39
2022/06/07 10:26:01;;;;;;;;;;;20.40;47.20;;;;;;4106748;28;19948;-38
2022/06/07 10:28:15;;;;;;;;;;;20.40;47.30;;;;;;4104123;28;20438;-38
2022/06/07 10:30:42;;;;;;;;;;;20.30;47.30;;;;;;4106223;28;19948;-38
2022/06/07 10:33:00;;;;;;;;;;;20.30;47.40;;;;;;4096394;28;20369;-39
2022/06/07 10:35:08;;;;;;;;;;;20.30;47.50;;;;;;4097395;28;19936;-39
2022/06/07 10:37:12;;;;;;;;;;;20.30;47.40;;;;;;4099706;28;20051;-38
2022/06/07 10:39:29;;;;;;;;;;;20.20;47.40;;;;;;4105726;28;20016;-38
2022/06/07 10:41:34;;;;;;;;;;;20.20;47.60;;;;;;4101733;28;19959;-38
2022/06/07 10:43:50;;;;;;;;;;;20.20;47.70;;;;;;4107676;28;19929;-40
2022/06/07 10:45:54;;;;;;;;;;;20.20;47.70;;;;;;4103934;28;19933;-38
2022/06/07 10:48:14;;;;;;;;;;;20.10;47.80;;;;;;4106292;28;19936;-38
2022/06/07 10:50:25;;;;;;;;;;;20.10;47.80;;;;;;4105534;28;20416;-37
2022/06/07 10:52:41;;;;;;;;;;;20.10;47.80;;;;;;4105716;28;20209;-38
2022/06/07 10:54:57;;;;;;;;;;;20.10;48.00;;;;;;4102987;28;19932;-38
2022/06/07 10:57:18;;;;;;;;;;;20.00;48.00;;;;;;4102325;28;19975;-39
2022/06/07 10:59:26;;;;;;;;;;;20.00;47.90;;;;;;4100236;28;19952;-40
2022/06/07 11:01:28;;;;;;;;;;;20.00;48.00;;;;;;4100341;28;20257;-38
2022/06/07 11:03:38;;;;;;;;;;;20.00;48.20;;;;;;4101904;28;21026;-40
2022/06/07 11:10:27;;;;;;;;;;;19.90;48.30;;;;;;4093868;28;20522;-38
2022/06/07 11:12:51;;;;;;;;;;;19.90;48.30;;;;;;4093677;28;19929;-39
2022/06/07 11:14:55;;;;;;;;;;;19.90;48.30;;;;;;4097778;28;20338;-40
2022/06/07 11:17:02;;;;;;;;;;;19.90;48.40;;;;;;4073278;28;19976;-38
2022/06/07 11:19:04;;;;;;;;;;;19.80;48.30;;;;;;4088501;28;19934;-37
2022/06/07 11:21:06;;;;;;;;;;;19.80;48.40;;;;;;4096869;28;20708;-38
2022/06/07 11:23:31;;;;;;;;;;;19.80;48.60;;;;;;4094887;28;20089;-39
2022/06/07 11:25:35;;;;;;;;;;;19.80;48.50;;;;;;4089893;28;20401;-37
2022/06/07 11:27:37;;;;;;;;;;;19.70;48.50;;;;;;4094638;28;19929;-38
2022/06/07 11:29:38;;;;;;;;;;;19.70;48.60;;;;;;4091401;28;19925;-38
2022/06/07 11:31:40;;;;;;;;;;;19.70;48.60;;;;;;4089407;28;20392;-38
2022/06/07 11:34:01;;;;;;;;;;;19.70;48.60;;;;;;4098261;28;19925;-39
2022/06/07 11:36:27;;;;;;;;;;;19.70;48.70;;;;;;4072939;28;20044;-41
2022/06/07 11:38:29;;;;;;;;;;;19.70;48.80;;;;;;4089339;28;20441;-39
2022/06/07 11:40:31;;;;;;;;;;;19.60;48.80;;;;;;4090302;28;20493;-40
2022/06/07 11:42:34;;;;;;;;;;;19.60;48.80;;;;;;4095904;28;19929;-38
2022/06/07 11:44:38;;;;;;;;;;;19.60;48.80;;;;;;4093174;28;19929;-38
2022/06/07 11:46:46;;;;;;;;;;;19.60;48.80;;;;;;4087909;28;20451;-42
2022/06/07 11:48:48;;;;;;;;;;;19.60;48.90;;;;;;4092287;28;19930;-39
2022/06/07 11:50:57;;;;;;;;;;;19.50;48.80;;;;;;4076788;28;20397;-38
2022/06/07 11:53:19;;;;;;;;;;;19.50;48.80;;;;;;4095849;28;19925;-38
2022/06/07 11:55:23;;;;;;;;;;;19.50;48.80;;;;;;4070705;28;20052;-39
2022/06/07 11:57:38;;;;;;;;;;;19.50;48.80;;;;;;4098556;28;19929;-36
2022/06/07 11:59:44;;;;;;;;;;;19.50;48.90;;;;;;4092748;28;20020;-39
2022/06/07 12:01:47;;;;;;;;;;;19.50;49.10;;;;;;4098339;28;19930;-37
2022/06/07 12:04:06;;;;;;;;;;;19.40;49.00;;;;;;4090716;28;21154;-38
2022/06/07 12:06:17;;;;;;;;;;;19.40;49.10;;;;;;4103398;28;20715;-41
2022/06/07 12:08:30;;;;;;;;;;;19.40;49.20;;;;;;4106467;28;21212;-37
2022/06/07 12:10:39;;;;;;;;;;;19.40;49.00;;;;;;4109580;28;20310;-41
2022/06/07 12:12:41;;;;;;;;;;;19.30;49.10;;;;;;4100732;28;20610;-38
2022/06/07 12:14:43;;;;;;;;;;;19.30;49.10;;;;;;4097659;28;20002;-41
2022/06/07 12:16:52;;;;;;;;;;;19.30;49.10;;;;;;4100608;28;19925;-37
2022/06/07 12:18:55;;;;;;;;;;;19.30;49.10;;;;;;4103646;28;20015;-38
2022/06/07 12:21:06;;;;;;;;;;;19.30;49.10;;;;;;4102075;28;20967;-36
2022/06/07 12:23:23;;;;;;;;;;;19.30;49.20;;;;;;4103131;28;21559;-37